Decoded Metar for KDRT (DEL RIO in TX, USA) (IATA:DRT) | Meteo·Mobile Aviation Weather
aviador You're here:

KDRT Decoded Metar

DEL RIO in TX, USA
Report Time2018-09-21 10:33:00
UTC Time2018-09-21 10:46:31
Flight Rules mvfr MVFR
Wind120° at 11 kt
W.Decomp.*RWY 13: 10.5 kt HW 3.4 kt LCW
W.Rank120° ranks 1
Current wind is above 120° avg. (8.7)
Visibility9999 m
Phenomena:N/A
Clouds:Scattered 010 Hf
Overcast 022 Hf
Ceiling2,200 ft
Temp25°C (ISA +12)
Dew Point25°C (100% RH)
QNH1010 hPa
Density Alt2,943 ft
Elevation1,027 ft
Report Wrong Elevation
Raw Report
KDRT 211033Z AUTO 12011KT 10SM SCT010 OVC022 25/25 A2983=

Extra information for KDRT:More info

Metar Taf Metar & Taf Last 4 Metars F.Rules Stats Wind Profile Meteogram Temp Stats Airport Information Weather charts Add Link Nearby VenuesMetar ALERT Operation Metar Decoded Social comments

AIRNAV info for KDRT